sensor_id;sensor_type;location;lat;lon;timestamp;pressure;altitude;pressure_sealevel;temperature;humidity
10946;BME280;5525;42.648;23.368;2023-09-30T00:02:18;95111.63;;;16.45;100.00
10946;BME280;5525;42.648;23.368;2023-09-30T00:04:45;95107.06;;;16.21;100.00
10946;BME280;5525;42.648;23.368;2023-09-30T00:07:12;95103.50;;;16.05;100.00
10946;BME280;5525;42.648;23.368;2023-09-30T00:09:40;95103.13;;;15.91;100.00
10946;BME280;5525;42.648;23.368;2023-09-30T00:12:06;95102.41;;;16.22;100.00
10946;BME280;5525;42.648;23.368;2023-09-30T00:14:34;95102.25;;;16.30;100.00
10946;BME280;5525;42.648;23.368;2023-09-30T00:17:01;95106.94;;;16.18;100.00
10946;BME280;5525;42.648;23.368;2023-09-30T00:19:28;95103.13;;;16.19;100.00
10946;BME280;5525;42.648;23.368;2023-09-30T00:21:57;95104.34;;;16.21;100.00
10946;BME280;5525;42.648;23.368;2023-09-30T00:24:25;95103.91;;;16.35;100.00
10946;BME280;5525;42.648;23.368;2023-09-30T00:26:53;95099.94;;;16.44;100.00
10946;BME280;5525;42.648;23.368;2023-09-30T00:29:20;95103.09;;;16.46;100.00
10946;BME280;5525;42.648;23.368;2023-09-30T00:31:46;95087.25;;;16.52;100.00
10946;BME280;5525;42.648;23.368;2023-09-30T00:34:13;95095.19;;;16.57;100.00
10946;BME280;5525;42.648;23.368;2023-09-30T00:36:40;95093.09;;;16.66;100.00
10946;BME280;5525;42.648;23.368;2023-09-30T00:39:07;95092.03;;;16.70;100.00
10946;BME280;5525;42.648;23.368;2023-09-30T00:41:34;95091.88;;;16.63;100.00
10946;BME280;5525;42.648;23.368;2023-09-30T00:44:03;95082.69;;;16.71;100.00
10946;BME280;5525;42.648;23.368;2023-09-30T00:46:31;95093.34;;;16.76;100.00
10946;BME280;5525;42.648;23.368;2023-09-30T00:48:59;95082.63;;;16.68;100.00
10946;BME280;5525;42.648;23.368;2023-09-30T00:51:26;95091.31;;;16.73;100.00
10946;BME280;5525;42.648;23.368;2023-09-30T00:53:56;95090.97;;;16.75;100.00
10946;BME280;5525;42.648;23.368;2023-09-30T00:56:26;95082.69;;;16.71;100.00
10946;BME280;5525;42.648;23.368;2023-09-30T00:58:53;95080.97;;;16.63;100.00
10946;BME280;5525;42.648;23.368;2023-09-30T01:01:22;95091.16;;;16.66;100.00
10946;BME280;5525;42.648;23.368;2023-09-30T01:03:49;95083.03;;;16.54;100.00
10946;BME280;5525;42.648;23.368;2023-09-30T01:06:15;95087.38;;;16.55;100.00
10946;BME280;5525;42.648;23.368;2023-09-30T01:08:42;95085.59;;;16.63;100.00
10946;BME280;5525;42.648;23.368;2023-09-30T01:11:09;95085.16;;;16.61;100.00
10946;BME280;5525;42.648;23.368;2023-09-30T01:13:36;95083.84;;;16.70;100.00
10946;BME280;5525;42.648;23.368;2023-09-30T01:16:04;95086.59;;;16.27;100.00
10946;BME280;5525;42.648;23.368;2023-09-30T01:18:32;95085.16;;;16.45;100.00
10946;BME280;5525;42.648;23.368;2023-09-30T01:21:01;95085.41;;;16.56;100.00
10946;BME280;5525;42.648;23.368;2023-09-30T01:23:31;95079.44;;;16.66;100.00
10946;BME280;5525;42.648;23.368;2023-09-30T01:26:01;95084.81;;;16.62;100.00
10946;BME280;5525;42.648;23.368;2023-09-30T01:28:28;95085.88;;;16.73;100.00
10946;BME280;5525;42.648;23.368;2023-09-30T01:30:55;95080.16;;;16.78;100.00
10946;BME280;5525;42.648;23.368;2023-09-30T01:33:22;95084.72;;;16.74;100.00
10946;BME280;5525;42.648;23.368;2023-09-30T01:35:49;95087.53;;;16.94;100.00
10946;BME280;5525;42.648;23.368;2023-09-30T01:38:16;95078.03;;;16.88;100.00
10946;BME280;5525;42.648;23.368;2023-09-30T01:40:44;95081.91;;;16.87;100.00
10946;BME280;5525;42.648;23.368;2023-09-30T01:43:12;95077.94;;;16.68;100.00
10946;BME280;5525;42.648;23.368;2023-09-30T01:45:39;95081.56;;;16.72;100.00
10946;BME280;5525;42.648;23.368;2023-09-30T01:48:06;95083.25;;;16.77;100.00
10946;BME280;5525;42.648;23.368;2023-09-30T01:50:36;95079.81;;;16.80;100.00
10946;BME280;5525;42.648;23.368;2023-09-30T01:53:03;95086.31;;;16.60;100.00
10946;BME280;5525;42.648;23.368;2023-09-30T01:55:30;95083.69;;;16.63;100.00
10946;BME280;5525;42.648;23.368;2023-09-30T01:57:58;95080.50;;;16.61;100.00
10946;BME280;5525;42.648;23.368;2023-09-30T02:00:24;95074.34;;;16.64;100.00
10946;BME280;5525;42.648;23.368;2023-09-30T02:02:53;95075.41;;;16.60;100.00
10946;BME280;5525;42.648;23.368;2023-09-30T02:05:20;95068.88;;;16.49;100.00
10946;BME280;5525;42.648;23.368;2023-09-30T02:07:47;95068.00;;;16.45;100.00
10946;BME280;5525;42.648;23.368;2023-09-30T02:10:14;95074.09;;;16.54;100.00
10946;BME280;5525;42.648;23.368;2023-09-30T02:12:41;95070.00;;;16.32;100.00
10946;BME280;5525;42.648;23.368;2023-09-30T02:15:10;95066.91;;;16.34;100.00
10946;BME280;5525;42.648;23.368;2023-09-30T02:17:37;95070.75;;;16.17;100.00
10946;BME280;5525;42.648;23.368;2023-09-30T02:20:04;95070.22;;;15.84;100.00
10946;BME280;5525;42.648;23.368;2023-09-30T02:22:33;95073.53;;;16.05;100.00
10946;BME280;5525;42.648;23.368;2023-09-30T02:25:01;95072.19;;;15.99;100.00
10946;BME280;5525;42.648;23.368;2023-09-30T02:27:27;95068.84;;;15.90;100.00
10946;BME280;5525;42.648;23.368;2023-09-30T02:29:54;95078.25;;;15.65;100.00
10946;BME280;5525;42.648;23.368;2023-09-30T02:32:23;95070.38;;;15.76;100.00
10946;BME280;5525;42.648;23.368;2023-09-30T02:34:50;95077.25;;;15.85;100.00
10946;BME280;5525;42.648;23.368;2023-09-30T02:37:16;95067.56;;;15.72;100.00
10946;BME280;5525;42.648;23.368;2023-09-30T02:39:43;95069.13;;;15.73;100.00
10946;BME280;5525;42.648;23.368;2023-09-30T02:42:10;95069.53;;;15.60;100.00
10946;BME280;5525;42.648;23.368;2023-09-30T02:44:37;95079.53;;;15.56;100.00
10946;BME280;5525;42.648;23.368;2023-09-30T02:47:03;95074.53;;;15.46;100.00
10946;BME280;5525;42.648;23.368;2023-09-30T02:49:34;95073.44;;;15.22;100.00
10946;BME280;5525;42.648;23.368;2023-09-30T02:52:01;95070.28;;;15.20;100.00
10946;BME280;5525;42.648;23.368;2023-09-30T02:54:27;95075.28;;;15.06;100.00
10946;BME280;5525;42.648;23.368;2023-09-30T02:56:54;95077.34;;;14.97;100.00
10946;BME280;5525;42.648;23.368;2023-09-30T02:59:21;95079.25;;;15.09;100.00
10946;BME280;5525;42.648;23.368;2023-09-30T03:01:48;95076.50;;;15.09;100.00
10946;BME280;5525;42.648;23.368;2023-09-30T03:04:15;95066.88;;;15.23;100.00
10946;BME280;5525;42.648;23.368;2023-09-30T03:06:46;95082.84;;;15.25;100.00
10946;BME280;5525;42.648;23.368;2023-09-30T03:09:13;95077.16;;;15.30;100.00
10946;BME280;5525;42.648;23.368;2023-09-30T03:11:40;95084.00;;;15.12;100.00
10946;BME280;5525;42.648;23.368;2023-09-30T03:14:09;95078.56;;;15.12;100.00
10946;BME280;5525;42.648;23.368;2023-09-30T03:16:36;95079.34;;;14.88;100.00
10946;BME280;5525;42.648;23.368;2023-09-30T03:19:03;95077.75;;;15.11;100.00
10946;BME280;5525;42.648;23.368;2023-09-30T03:21:34;95081.94;;;15.21;100.00
10946;BME280;5525;42.648;23.368;2023-09-30T03:24:02;95080.03;;;15.21;100.00
10946;BME280;5525;42.648;23.368;2023-09-30T03:26:29;95077.66;;;15.08;100.00
10946;BME280;5525;42.648;23.368;2023-09-30T03:28:56;95079.22;;;15.21;100.00
10946;BME280;5525;42.648;23.368;2023-09-30T03:31:22;95071.53;;;15.11;100.00
10946;BME280;5525;42.648;23.368;2023-09-30T03:33:49;95081.38;;;15.15;100.00
10946;BME280;5525;42.648;23.368;2023-09-30T03:36:19;95077.75;;;15.11;100.00
10946;BME280;5525;42.648;23.368;2023-09-30T03:38:46;95070.41;;;15.00;100.00
10946;BME280;5525;42.648;23.368;2023-09-30T03:41:13;95073.47;;;14.98;100.00
10946;BME280;5525;42.648;23.368;2023-09-30T03:43:40;95079.25;;;14.97;100.00
10946;BME280;5525;42.648;23.368;2023-09-30T03:46:07;95073.22;;;14.91;100.00
10946;BME280;5525;42.648;23.368;2023-09-30T03:48:34;95070.66;;;14.83;100.00
10946;BME280;5525;42.648;23.368;2023-09-30T03:51:08;95067.13;;;14.94;100.00
10946;BME280;5525;42.648;23.368;2023-09-30T03:53:35;95070.63;;;14.95;100.00
10946;BME280;5525;42.648;23.368;2023-09-30T03:56:02;95061.78;;;14.98;100.00
10946;BME280;5525;42.648;23.368;2023-09-30T03:58:30;95075.75;;;14.84;100.00
10946;BME280;5525;42.648;23.368;2023-09-30T04:00:57;95081.03;;;14.93;100.00
10946;BME280;5525;42.648;23.368;2023-09-30T04:03:25;95074.25;;;14.75;100.00
10946;BME280;5525;42.648;23.368;2023-09-30T04:05:52;95079.03;;;14.78;100.00
10946;BME280;5525;42.648;23.368;2023-09-30T04:08:19;95078.94;;;14.74;100.00
10946;BME280;5525;42.648;23.368;2023-09-30T04:10:47;95080.59;;;14.67;100.00
10946;BME280;5525;42.648;23.368;2023-09-30T04:13:14;95084.19;;;14.47;100.00
10946;BME280;5525;42.648;23.368;2023-09-30T04:15:43;95084.78;;;14.52;100.00
10946;BME280;5525;42.648;23.368;2023-09-30T04:18:12;95087.22;;;14.33;100.00
10946;BME280;5525;42.648;23.368;2023-09-30T04:20:39;95075.34;;;14.38;100.00
10946;BME280;5525;42.648;23.368;2023-09-30T04:23:05;95093.81;;;14.44;100.00
10946;BME280;5525;42.648;23.368;2023-09-30T04:25:32;95089.19;;;14.33;100.00
10946;BME280;5525;42.648;23.368;2023-09-30T04:27:59;95094.69;;;14.24;100.00
10946;BME280;5525;42.648;23.368;2023-09-30T04:30:26;95092.72;;;14.13;100.00
10946;BME280;5525;42.648;23.368;2023-09-30T04:32:54;95093.88;;;14.24;100.00
10946;BME280;5525;42.648;23.368;2023-09-30T04:35:22;95099.69;;;14.02;100.00
10946;BME280;5525;42.648;23.368;2023-09-30T04:37:50;95093.97;;;14.15;100.00
10946;BME280;5525;42.648;23.368;2023-09-30T04:40:18;95095.63;;;14.08;100.00
10946;BME280;5525;42.648;23.368;2023-09-30T04:42:46;95099.00;;;13.93;100.00
10946;BME280;5525;42.648;23.368;2023-09-30T04:45:13;95097.53;;;13.75;100.00
10946;BME280;5525;42.648;23.368;2023-09-30T04:47:41;95099.81;;;13.73;100.00
10946;BME280;5525;42.648;23.368;2023-09-30T04:50:11;95109.75;;;13.48;100.00
10946;BME280;5525;42.648;23.368;2023-09-30T04:52:41;95106.22;;;13.68;100.00
10946;BME280;5525;42.648;23.368;2023-09-30T04:55:09;95115.38;;;13.64;100.00
10946;BME280;5525;42.648;23.368;2023-09-30T04:57:37;95116.53;;;13.75;100.00
10946;BME280;5525;42.648;23.368;2023-09-30T05:00:05;95107.47;;;13.71;100.00
10946;BME280;5525;42.648;23.368;2023-09-30T05:02:37;95117.28;;;13.63;100.00
10946;BME280;5525;42.648;23.368;2023-09-30T05:05:05;95109.84;;;13.51;100.00
10946;BME280;5525;42.648;23.368;2023-09-30T05:07:33;95117.38;;;13.54;100.00
10946;BME280;5525;42.648;23.368;2023-09-30T05:10:00;95121.53;;;13.73;100.00
10946;BME280;5525;42.648;23.368;2023-09-30T05:12:30;95121.97;;;13.33;100.00
10946;BME280;5525;42.648;23.368;2023-09-30T05:14:57;95121.13;;;13.62;100.00
10946;BME280;5525;42.648;23.368;2023-09-30T05:17:24;95122.44;;;13.77;100.00
10946;BME280;5525;42.648;23.368;2023-09-30T05:19:50;95117.84;;;13.89;100.00
10946;BME280;5525;42.648;23.368;2023-09-30T05:22:18;95123.78;;;14.03;100.00
10946;BME280;5525;42.648;23.368;2023-09-30T05:24:50;95119.88;;;14.13;100.00
10946;BME280;5525;42.648;23.368;2023-09-30T05:27:17;95123.63;;;14.20;100.00
10946;BME280;5525;42.648;23.368;2023-09-30T05:29:44;95119.44;;;14.23;100.00
10946;BME280;5525;42.648;23.368;2023-09-30T05:32:12;95115.13;;;14.10;100.00
10946;BME280;5525;42.648;23.368;2023-09-30T05:34:39;95127.66;;;14.35;100.00
10946;BME280;5525;42.648;23.368;2023-09-30T05:37:06;95114.88;;;14.47;100.00
10946;BME280;5525;42.648;23.368;2023-09-30T05:39:33;95125.94;;;14.30;100.00
10946;BME280;5525;42.648;23.368;2023-09-30T05:42:01;95133.91;;;14.47;100.00
10946;BME280;5525;42.648;23.368;2023-09-30T05:44:29;95137.91;;;14.62;100.00
10946;BME280;5525;42.648;23.368;2023-09-30T05:46:56;95132.00;;;14.60;100.00
10946;BME280;5525;42.648;23.368;2023-09-30T05:49:22;95130.09;;;14.60;100.00
10946;BME280;5525;42.648;23.368;2023-09-30T05:51:49;95132.56;;;14.53;100.00
10946;BME280;5525;42.648;23.368;2023-09-30T05:54:17;95133.56;;;14.49;100.00
10946;BME280;5525;42.648;23.368;2023-09-30T05:56:43;95138.38;;;14.76;100.00
10946;BME280;5525;42.648;23.368;2023-09-30T05:59:11;95141.13;;;15.00;100.00
10946;BME280;5525;42.648;23.368;2023-09-30T06:01:38;95134.09;;;14.99;100.00
10946;BME280;5525;42.648;23.368;2023-09-30T06:04:06;95144.84;;;15.19;100.00
10946;BME280;5525;42.648;23.368;2023-09-30T06:06:33;95141.91;;;15.24;100.00
10946;BME280;5525;42.648;23.368;2023-09-30T06:09:00;95148.00;;;15.58;100.00
10946;BME280;5525;42.648;23.368;2023-09-30T06:11:26;95143.28;;;15.82;100.00
10946;BME280;5525;42.648;23.368;2023-09-30T06:13:54;95153.91;;;15.99;100.00
10946;BME280;5525;42.648;23.368;2023-09-30T06:16:22;95141.59;;;16.17;100.00
10946;BME280;5525;42.648;23.368;2023-09-30T06:18:51;95144.78;;;16.35;100.00
10946;BME280;5525;42.648;23.368;2023-09-30T06:21:18;95151.94;;;16.39;100.00
10946;BME280;5525;42.648;23.368;2023-09-30T06:23:46;95155.06;;;16.53;100.00
10946;BME280;5525;42.648;23.368;2023-09-30T06:26:14;95154.56;;;16.79;100.00
10946;BME280;5525;42.648;23.368;2023-09-30T06:28:41;95150.78;;;16.68;100.00
10946;BME280;5525;42.648;23.368;2023-09-30T06:31:08;95157.03;;;16.68;100.00
10946;BME280;5525;42.648;23.368;2023-09-30T06:33:36;95163.66;;;16.83;100.00
10946;BME280;5525;42.648;23.368;2023-09-30T06:36:08;95164.28;;;17.08;100.00
10946;BME280;5525;42.648;23.368;2023-09-30T06:38:35;95155.72;;;17.25;100.00
10946;BME280;5525;42.648;23.368;2023-09-30T06:41:02;95169.78;;;17.42;100.00
10946;BME280;5525;42.648;23.368;2023-09-30T06:43:29;95163.38;;;17.19;100.00
10946;BME280;5525;42.648;23.368;2023-09-30T06:45:55;95150.69;;;17.58;100.00
10946;BME280;5525;42.648;23.368;2023-09-30T06:48:22;95148.72;;;17.74;100.00
10946;BME280;5525;42.648;23.368;2023-09-30T06:50:50;95156.78;;;17.86;100.00
10946;BME280;5525;42.648;23.368;2023-09-30T06:53:18;95159.94;;;18.07;100.00
10946;BME280;5525;42.648;23.368;2023-09-30T06:55:47;95160.53;;;18.16;100.00
10946;BME280;5525;42.648;23.368;2023-09-30T06:58:14;95170.94;;;18.45;100.00
10946;BME280;5525;42.648;23.368;2023-09-30T07:00:46;95159.59;;;18.66;100.00
10946;BME280;5525;42.648;23.368;2023-09-30T07:03:12;95169.34;;;19.27;100.00
10946;BME280;5525;42.648;23.368;2023-09-30T07:05:40;95176.56;;;23.17;91.71
10946;BME280;5525;42.648;23.368;2023-09-30T07:08:09;95178.75;;;27.38;57.49
10946;BME280;5525;42.648;23.368;2023-09-30T07:10:36;95180.81;;;28.30;47.83
10946;BME280;5525;42.648;23.368;2023-09-30T07:13:03;95197.75;;;28.36;44.51
10946;BME280;5525;42.648;23.368;2023-09-30T07:15:30;95196.72;;;31.04;38.80
10946;BME280;5525;42.648;23.368;2023-09-30T07:17:57;95207.06;;;32.45;36.02
10946;BME280;5525;42.648;23.368;2023-09-30T07:20:23;95202.31;;;29.63;39.44
10946;BME280;5525;42.648;23.368;2023-09-30T07:22:50;95193.81;;;27.37;42.47
10946;BME280;5525;42.648;23.368;2023-09-30T07:25:19;95196.34;;;26.24;45.99
10946;BME280;5525;42.648;23.368;2023-09-30T07:27:46;95194.63;;;24.66;49.28
10946;BME280;5525;42.648;23.368;2023-09-30T07:30:13;95197.09;;;24.01;52.69
10946;BME280;5525;42.648;23.368;2023-09-30T07:32:41;95191.19;;;23.36;55.48
10946;BME280;5525;42.648;23.368;2023-09-30T07:35:08;95199.31;;;22.90;59.03
10946;BME280;5525;42.648;23.368;2023-09-30T07:37:35;95187.88;;;22.74;60.49
10946;BME280;5525;42.648;23.368;2023-09-30T07:40:03;95190.09;;;22.47;62.78
10946;BME280;5525;42.648;23.368;2023-09-30T07:42:31;95188.75;;;23.13;60.75
10946;BME280;5525;42.648;23.368;2023-09-30T07:45:00;95190.25;;;24.68;55.41
10946;BME280;5525;42.648;23.368;2023-09-30T07:47:28;95192.03;;;27.50;46.43
10946;BME280;5525;42.648;23.368;2023-09-30T07:49:55;95202.78;;;29.26;39.46
10946;BME280;5525;42.648;23.368;2023-09-30T07:52:22;95203.19;;;31.42;35.90
10946;BME280;5525;42.648;23.368;2023-09-30T07:54:49;95215.44;;;34.36;30.58
10946;BME280;5525;42.648;23.368;2023-09-30T07:57:15;95212.22;;;38.19;24.99
10946;BME280;5525;42.648;23.368;2023-09-30T07:59:43;95230.09;;;39.71;22.41
10946;BME280;5525;42.648;23.368;2023-09-30T08:02:10;95228.38;;;41.31;20.82
10946;BME280;5525;42.648;23.368;2023-09-30T08:04:37;95226.44;;;41.82;19.82
10946;BME280;5525;42.648;23.368;2023-09-30T08:07:03;95240.66;;;42.81;18.54
10946;BME280;5525;42.648;23.368;2023-09-30T08:09:30;95235.53;;;43.88;17.20
10946;BME280;5525;42.648;23.368;2023-09-30T08:11:57;95244.66;;;44.76;16.57
10946;BME280;5525;42.648;23.368;2023-09-30T08:14:23;95250.34;;;45.85;15.72
10946;BME280;5525;42.648;23.368;2023-09-30T08:16:52;95242.66;;;43.65;16.55
10946;BME280;5525;42.648;23.368;2023-09-30T08:19:19;95223.03;;;40.91;17.90
10946;BME280;5525;42.648;23.368;2023-09-30T08:21:48;95226.41;;;39.85;19.01
10946;BME280;5525;42.648;23.368;2023-09-30T08:24:15;95234.00;;;43.82;16.46
10946;BME280;5525;42.648;23.368;2023-09-30T08:26:42;95231.44;;;43.78;15.87
10946;BME280;5525;42.648;23.368;2023-09-30T08:29:09;95217.59;;;41.46;17.45
10946;BME280;5525;42.648;23.368;2023-09-30T08:31:36;95219.19;;;40.89;17.55
10946;BME280;5525;42.648;23.368;2023-09-30T08:34:04;95227.19;;;40.54;18.03
10946;BME280;5525;42.648;23.368;2023-09-30T08:36:30;95218.91;;;41.51;16.84
10946;BME280;5525;42.648;23.368;2023-09-30T08:38:57;95213.91;;;41.18;17.32
10946;BME280;5525;42.648;23.368;2023-09-30T08:41:30;95218.81;;;41.29;17.09
10946;BME280;5525;42.648;23.368;2023-09-30T08:44:00;95217.66;;;40.57;16.94
10946;BME280;5525;42.648;23.368;2023-09-30T08:46:29;95208.13;;;42.49;15.59
10946;BME280;5525;42.648;23.368;2023-09-30T08:48:58;95210.47;;;40.61;16.55
10946;BME280;5525;42.648;23.368;2023-09-30T08:51:26;95218.47;;;42.19;16.40
10946;BME280;5525;42.648;23.368;2023-09-30T08:53:53;95212.78;;;42.30;15.67
10946;BME280;5525;42.648;23.368;2023-09-30T08:56:25;95212.22;;;43.44;15.26
10946;BME280;5525;42.648;23.368;2023-09-30T08:58:55;95207.34;;;40.48;16.53
10946;BME280;5525;42.648;23.368;2023-09-30T09:01:23;95205.34;;;41.99;15.67
10946;BME280;5525;42.648;23.368;2023-09-30T09:03:50;95209.81;;;43.01;15.05
10946;BME280;5525;42.648;23.368;2023-09-30T09:06:18;95198.50;;;40.77;16.63
10946;BME280;5525;42.648;23.368;2023-09-30T09:08:46;95197.81;;;41.74;16.39
10946;BME280;5525;42.648;23.368;2023-09-30T09:11:13;95197.25;;;42.69;14.77
10946;BME280;5525;42.648;23.368;2023-09-30T09:13:47;95201.03;;;43.05;14.48
10946;BME280;5525;42.648;23.368;2023-09-30T09:16:16;95197.69;;;43.01;14.22
10946;BME280;5525;42.648;23.368;2023-09-30T09:18:44;95204.34;;;44.90;13.60
10946;BME280;5525;42.648;23.368;2023-09-30T09:21:13;95195.75;;;43.31;14.32
10946;BME280;5525;42.648;23.368;2023-09-30T09:23:42;95194.38;;;45.95;13.25
10946;BME280;5525;42.648;23.368;2023-09-30T09:26:11;95203.03;;;46.21;12.53
10946;BME280;5525;42.648;23.368;2023-09-30T09:28:38;95198.81;;;44.73;12.64
10946;BME280;5525;42.648;23.368;2023-09-30T09:31:19;95199.94;;;45.32;12.48
10946;BME280;5525;42.648;23.368;2023-09-30T09:33:47;95193.38;;;45.37;12.18
10946;BME280;5525;42.648;23.368;2023-09-30T09:36:15;95193.31;;;45.24;12.88
10946;BME280;5525;42.648;23.368;2023-09-30T09:38:45;95184.00;;;44.27;13.36
10946;BME280;5525;42.648;23.368;2023-09-30T09:41:14;95191.91;;;43.69;13.77
10946;BME280;5525;42.648;23.368;2023-09-30T09:43:42;95179.44;;;44.13;13.36
10946;BME280;5525;42.648;23.368;2023-09-30T09:46:09;95178.88;;;43.44;13.49
10946;BME280;5525;42.648;23.368;2023-09-30T09:48:37;95153.72;;;42.01;14.80
10946;BME280;5525;42.648;23.368;2023-09-30T09:51:04;95168.41;;;42.16;14.24
10946;BME280;5525;42.648;23.368;2023-09-30T09:53:35;95165.34;;;42.03;14.85
10946;BME280;5525;42.648;23.368;2023-09-30T09:56:03;95160.34;;;40.67;15.31
10946;BME280;5525;42.648;23.368;2023-09-30T09:58:33;95157.75;;;41.22;14.61
10946;BME280;5525;42.648;23.368;2023-09-30T10:01:02;95151.72;;;40.40;15.12
10946;BME280;5525;42.648;23.368;2023-09-30T10:03:31;95149.72;;;38.61;16.31
10946;BME280;5525;42.648;23.368;2023-09-30T10:05:58;95144.97;;;39.18;15.91
10946;BME280;5525;42.648;23.368;2023-09-30T10:08:31;95148.78;;;41.73;14.70
10946;BME280;5525;42.648;23.368;2023-09-30T10:11:00;95148.69;;;42.78;14.37
10946;BME280;5525;42.648;23.368;2023-09-30T10:13:51;95131.50;;;41.44;14.25
10946;BME280;5525;42.648;23.368;2023-09-30T10:16:49;95151.00;;;44.07;13.59
10946;BME280;5525;42.648;23.368;2023-09-30T10:19:17;95153.06;;;44.85;12.22
10946;BME280;5525;42.648;23.368;2023-09-30T10:24:52;95134.50;;;44.00;12.89
10946;BME280;5525;42.648;23.368;2023-09-30T10:27:29;95135.59;;;44.27;12.93
10946;BME280;5525;42.648;23.368;2023-09-30T10:29:59;95126.50;;;43.99;13.07
10946;BME280;5525;42.648;23.368;2023-09-30T10:35:45;95118.38;;;41.80;13.50
10946;BME280;5525;42.648;23.368;2023-09-30T10:38:37;95104.63;;;40.48;14.13
10946;BME280;5525;42.648;23.368;2023-09-30T10:41:08;95096.38;;;37.01;16.77
10946;BME280;5525;42.648;23.368;2023-09-30T10:43:38;95089.75;;;36.89;17.12
10946;BME280;5525;42.648;23.368;2023-09-30T10:46:33;95089.34;;;33.38;19.50
10946;BME280;5525;42.648;23.368;2023-09-30T10:49:30;95077.41;;;31.71;20.65
10946;BME280;5525;42.648;23.368;2023-09-30T10:51:59;95074.44;;;30.61;22.03
10946;BME280;5525;42.648;23.368;2023-09-30T10:54:27;95083.41;;;28.96;23.35
10946;BME280;5525;42.648;23.368;2023-09-30T10:56:54;95083.84;;;32.05;20.72
10946;BME280;5525;42.648;23.368;2023-09-30T10:59:22;95082.56;;;34.51;18.87
10946;BME280;5525;42.648;23.368;2023-09-30T11:01:51;95081.69;;;36.21;17.21
10946;BME280;5525;42.648;23.368;2023-09-30T11:04:18;95074.66;;;35.27;17.71
10946;BME280;5525;42.648;23.368;2023-09-30T11:06:46;95082.25;;;34.40;18.37
10946;BME280;5525;42.648;23.368;2023-09-30T11:09:16;95071.88;;;35.18;18.33
10946;BME280;5525;42.648;23.368;2023-09-30T11:11:44;95078.16;;;34.86;18.41
10946;BME280;5525;42.648;23.368;2023-09-30T11:14:21;95072.75;;;34.92;18.22
10946;BME280;5525;42.648;23.368;2023-09-30T11:16:48;95076.00;;;35.50;18.22
10946;BME280;5525;42.648;23.368;2023-09-30T11:19:17;95070.75;;;36.99;16.57
10946;BME280;5525;42.648;23.368;2023-09-30T11:21:48;95069.94;;;37.71;16.10
10946;BME280;5525;42.648;23.368;2023-09-30T11:24:15;95067.13;;;36.31;16.63
10946;BME280;5525;42.648;23.368;2023-09-30T11:26:42;95059.69;;;35.30;17.88
10946;BME280;5525;42.648;23.368;2023-09-30T11:29:10;95063.28;;;36.20;17.56
10946;BME280;5525;42.648;23.368;2023-09-30T11:31:37;95059.53;;;35.66;17.75
10946;BME280;5525;42.648;23.368;2023-09-30T11:34:04;95066.00;;;34.98;18.28
10946;BME280;5525;42.648;23.368;2023-09-30T11:36:34;95058.22;;;35.44;18.13
10946;BME280;5525;42.648;23.368;2023-09-30T11:39:01;95059.03;;;34.58;18.53
10946;BME280;5525;42.648;23.368;2023-09-30T11:41:35;95053.84;;;35.43;18.42
10946;BME280;5525;42.648;23.368;2023-09-30T11:44:05;95063.81;;;36.09;17.52
10946;BME280;5525;42.648;23.368;2023-09-30T11:46:48;95054.63;;;36.47;17.47
10946;BME280;5525;42.648;23.368;2023-09-30T11:49:29;95055.13;;;36.60;17.57
10946;BME280;5525;42.648;23.368;2023-09-30T11:51:59;95040.13;;;35.45;18.29
10946;BME280;5525;42.648;23.368;2023-09-30T11:54:32;95049.19;;;34.71;18.73
10946;BME280;5525;42.648;23.368;2023-09-30T11:57:00;95033.97;;;35.14;18.60
10946;BME280;5525;42.648;23.368;2023-09-30T11:59:27;95040.97;;;34.32;19.70
10946;BME280;5525;42.648;23.368;2023-09-30T12:01:54;95036.13;;;34.23;19.28
10946;BME280;5525;42.648;23.368;2023-09-30T12:04:21;95029.56;;;34.08;19.72
10946;BME280;5525;42.648;23.368;2023-09-30T12:06:48;95029.28;;;34.42;19.42
10946;BME280;5525;42.648;23.368;2023-09-30T12:09:17;95025.22;;;33.89;20.24
10946;BME280;5525;42.648;23.368;2023-09-30T12:11:48;95013.78;;;33.56;20.07
10946;BME280;5525;42.648;23.368;2023-09-30T12:14:14;95020.38;;;34.62;19.44
10946;BME280;5525;42.648;23.368;2023-09-30T12:16:41;95016.34;;;34.08;19.45
10946;BME280;5525;42.648;23.368;2023-09-30T12:19:10;95021.81;;;34.48;19.34
10946;BME280;5525;42.648;23.368;2023-09-30T12:21:38;95013.28;;;33.40;20.53
10946;BME280;5525;42.648;23.368;2023-09-30T12:24:06;95010.00;;;33.41;20.18
10946;BME280;5525;42.648;23.368;2023-09-30T12:26:34;95000.00;;;32.70;20.93
10946;BME280;5525;42.648;23.368;2023-09-30T12:29:01;94999.00;;;31.65;21.74
10946;BME280;5525;42.648;23.368;2023-09-30T12:31:28;94987.97;;;31.49;22.37
10946;BME280;5525;42.648;23.368;2023-09-30T12:33:55;94996.34;;;31.62;21.95
10946;BME280;5525;42.648;23.368;2023-09-30T12:36:21;94988.94;;;31.34;22.20
10946;BME280;5525;42.648;23.368;2023-09-30T12:38:49;94996.38;;;30.61;22.84
10946;BME280;5525;42.648;23.368;2023-09-30T12:41:16;94985.59;;;29.94;23.24
10946;BME280;5525;42.648;23.368;2023-09-30T12:43:46;94991.06;;;29.20;23.74
10946;BME280;5525;42.648;23.368;2023-09-30T12:46:12;94983.06;;;29.06;24.09
10946;BME280;5525;42.648;23.368;2023-09-30T12:48:39;94989.88;;;28.70;24.52
10946;BME280;5525;42.648;23.368;2023-09-30T12:51:06;94978.81;;;28.31;25.40
10946;BME280;5525;42.648;23.368;2023-09-30T12:53:34;94974.59;;;27.83;25.69
10946;BME280;5525;42.648;23.368;2023-09-30T12:56:01;94973.81;;;27.63;26.56
10946;BME280;5525;42.648;23.368;2023-09-30T12:58:27;94976.00;;;27.29;26.98
10946;BME280;5525;42.648;23.368;2023-09-30T13:00:56;94970.81;;;27.54;26.05
10946;BME280;5525;42.648;23.368;2023-09-30T13:03:23;94967.13;;;27.15;27.01
10946;BME280;5525;42.648;23.368;2023-09-30T13:05:50;94963.34;;;27.28;27.20
10946;BME280;5525;42.648;23.368;2023-09-30T13:08:17;94965.41;;;26.75;27.53